Time;durP1;ratioP1;P1;durP2;ratioP2;P2;SDS_P1;SDS_P2;PMS_P1;PMS_P2;Temp;Humidity;BMP_temperature;BMP_pressure;BME280_temperature;BME280_humidity;BME280_pressure;Samples;Min_cycle;Max_cycle;Signal;HPM_P1;HPM_P2
2024/01/02 00:01:39;;;;;;;17.97;7.03;;;3.50;99.90;;;;;;4395542;28;659005;-77
2024/01/02 00:04:27;;;;;;;21.63;6.93;;;3.60;99.90;;;;;;4419439;28;659337;-76
2024/01/02 00:07:14;;;;;;;16.37;6.37;;;3.60;99.90;;;;;;4394742;28;659681;-76
2024/01/02 00:10:01;;;;;;;16.10;5.43;;;3.60;99.90;;;;;;4421361;28;659130;-77
2024/01/02 00:12:48;;;;;;;15.27;6.20;;;3.60;99.90;;;;;;4398252;28;659025;-76
2024/01/02 00:15:38;;;;;;;15.50;5.17;;;3.70;99.90;;;;;;4431715;28;659323;-77
2024/01/02 00:18:25;;;;;;;17.67;6.23;;;3.80;99.90;;;;;;4405075;28;659099;-77
2024/01/02 00:21:12;;;;;;;17.63;5.60;;;3.80;99.90;;;;;;4426558;28;659018;-77
2024/01/02 00:24:01;;;;;;;13.37;4.67;;;3.70;99.90;;;;;;4420602;28;658773;-77
2024/01/02 00:26:49;;;;;;;17.43;4.40;;;3.70;99.90;;;;;;4403393;28;658550;-76
2024/01/02 00:29:36;;;;;;;12.93;4.37;;;3.80;99.90;;;;;;4426235;28;658791;-77
2024/01/02 00:32:24;;;;;;;12.83;5.00;;;3.70;99.90;;;;;;4408425;28;658919;-78
2024/01/02 00:35:11;;;;;;;16.07;5.30;;;3.80;99.90;;;;;;4427364;28;658263;-77
2024/01/02 00:37:59;;;;;;;17.87;4.80;;;3.80;99.90;;;;;;4400802;28;658858;-77
2024/01/02 00:40:46;;;;;;;15.13;4.30;;;3.80;99.90;;;;;;4431897;28;659009;-77
2024/01/02 00:43:33;;;;;;;14.37;4.67;;;3.80;99.90;;;;;;4407060;28;658716;-77
2024/01/02 00:46:20;;;;;;;10.30;4.23;;;3.90;99.90;;;;;;4420413;28;659743;-77
2024/01/02 00:49:09;;;;;;;14.10;4.97;;;3.80;99.90;;;;;;4405929;28;658476;-77
2024/01/02 00:51:56;;;;;;;13.63;4.50;;;3.80;99.90;;;;;;4425087;28;658869;-77
2024/01/02 00:54:43;;;;;;;12.35;4.50;;;3.80;99.90;;;;;;4386677;28;658440;-77
2024/01/02 00:57:31;;;;;;;16.90;5.17;;;3.80;99.90;;;;;;4426732;28;659266;-76
2024/01/02 01:00:19;;;;;;;14.33;4.97;;;3.80;99.90;;;;;;4400822;28;658680;-76
2024/01/02 01:03:06;;;;;;;9.80;3.90;;;3.70;99.90;;;;;;4419742;28;658968;-77
2024/01/02 01:05:54;;;;;;;16.70;5.77;;;3.70;99.90;;;;;;4400452;28;657831;-76
2024/01/02 01:08:41;;;;;;;9.37;3.80;;;3.80;99.90;;;;;;4431863;28;658455;-76
2024/01/02 01:11:29;;;;;;;13.60;4.43;;;3.80;99.90;;;;;;4398883;28;657582;-76
2024/01/02 01:14:16;;;;;;;13.37;4.47;;;3.80;99.90;;;;;;4404406;28;658551;-76
2024/01/02 01:17:04;;;;;;;18.57;5.27;;;3.70;99.90;;;;;;4395597;28;659046;-76
2024/01/02 01:19:51;;;;;;;14.40;5.47;;;3.80;99.90;;;;;;4422556;28;658789;-76
2024/01/02 01:22:40;;;;;;;13.33;4.63;;;3.80;99.90;;;;;;4390876;28;658582;-76
2024/01/02 01:25:27;;;;;;;4.93;2.03;;;3.70;99.90;;;;;;4407439;28;659064;-76
2024/01/02 01:28:15;;;;;;;11.33;4.00;;;3.70;99.90;;;;;;4429617;28;657938;-76
2024/01/02 01:31:02;;;;;;;13.17;4.73;;;3.70;99.90;;;;;;4436222;28;659361;-76
2024/01/02 01:33:49;;;;;;;6.47;2.53;;;3.50;99.90;;;;;;4406906;28;658348;-76
2024/01/02 01:36:36;;;;;;;9.83;4.03;;;3.50;99.90;;;;;;4427028;28;657881;-76
2024/01/02 01:39:25;;;;;;;11.73;4.40;;;3.50;99.90;;;;;;4410307;28;658086;-76
2024/01/02 01:42:12;;;;;;;13.10;4.07;;;3.50;99.90;;;;;;4423709;28;658857;-76
2024/01/02 01:45:00;;;;;;;12.53;5.07;;;3.50;99.90;;;;;;4431429;28;659235;-76
2024/01/02 01:47:47;;;;;;;21.40;5.27;;;3.40;99.90;;;;;;4416929;28;658534;-76
2024/01/02 01:50:35;;;;;;;12.90;4.27;;;3.40;99.90;;;;;;4418698;28;658668;-76
2024/01/02 01:53:22;;;;;;;20.43;5.53;;;3.40;99.90;;;;;;4413212;28;658842;-76
2024/01/02 01:56:10;;;;;;;5.10;2.00;;;3.40;99.90;;;;;;4390362;28;658821;-76
2024/01/02 01:58:58;;;;;;;13.10;4.80;;;3.40;99.90;;;;;;4391697;28;657422;-76
2024/01/02 02:01:45;;;;;;;19.73;4.63;;;3.40;99.90;;;;;;4413185;28;660230;-76
2024/01/02 02:04:33;;;;;;;15.63;6.30;;;3.40;99.90;;;;;;4405742;28;658698;-76
2024/01/02 02:07:20;;;;;;;11.90;3.53;;;3.30;99.90;;;;;;4412238;28;659774;-76
2024/01/02 02:10:08;;;;;;;12.43;5.60;;;3.40;99.90;;;;;;4395328;28;659039;-76
2024/01/02 02:12:57;;;;;;;11.50;5.43;;;3.40;99.90;;;;;;4414489;28;659999;-76
2024/01/02 02:15:44;;;;;;;14.07;5.60;;;3.30;99.90;;;;;;4391360;28;659819;-77
2024/01/02 02:18:31;;;;;;;17.43;6.03;;;3.30;99.90;;;;;;4414096;28;658805;-77
2024/01/02 02:21:19;;;;;;;17.57;5.90;;;3.40;99.90;;;;;;4401694;28;658547;-77
2024/01/02 02:24:09;;;;;;;13.57;6.10;;;3.40;99.90;;;;;;4404577;28;658768;-76
2024/01/02 02:26:56;;;;;;;19.13;6.23;;;3.30;99.90;;;;;;4429326;28;659014;-76
2024/01/02 02:29:43;;;;;;;5.23;1.77;;;3.40;99.90;;;;;;4407042;28;658700;-77
2024/01/02 02:32:30;;;;;;;21.33;7.00;;;3.40;99.90;;;;;;4431781;28;658209;-76
2024/01/02 02:35:18;;;;;;;16.03;5.80;;;3.40;99.90;;;;;;4406507;28;658750;-76
2024/01/02 02:38:05;;;;;;;14.40;6.27;;;3.30;99.90;;;;;;4420480;28;661106;-77
2024/01/02 02:40:54;;;;;;;12.20;4.80;;;3.40;99.90;;;;;;4428123;28;658855;-76
2024/01/02 02:43:41;;;;;;;4.07;1.80;;;3.40;99.90;;;;;;4422870;28;658288;-76
2024/01/02 02:46:28;;;;;;;14.47;5.03;;;3.50;99.90;;;;;;4400921;28;657697;-76
2024/01/02 02:49:15;;;;;;;19.40;4.67;;;3.40;99.90;;;;;;4428713;28;659996;-76
2024/01/02 02:52:03;;;;;;;14.80;5.13;;;3.50;99.90;;;;;;4397308;28;659813;-76
2024/01/02 02:54:50;;;;;;;14.67;5.30;;;3.50;99.90;;;;;;4426083;28;658994;-76
2024/01/02 02:57:39;;;;;;;12.73;5.20;;;3.40;99.90;;;;;;4401410;28;658691;-76
2024/01/02 03:00:26;;;;;;;15.57;5.67;;;3.40;99.90;;;;;;4415193;28;658937;-76
2024/01/02 03:03:14;;;;;;;20.17;5.83;;;3.40;99.90;;;;;;4389250;28;659009;-76
2024/01/02 03:06:01;;;;;;;13.17;4.80;;;3.40;99.90;;;;;;4414591;28;658803;-76
2024/01/02 03:08:48;;;;;;;15.53;5.23;;;3.50;99.90;;;;;;4409908;28;659036;-76
2024/01/02 03:11:35;;;;;;;14.02;5.45;;;3.40;99.90;;;;;;4419228;28;659589;-77
2024/01/02 03:14:24;;;;;;;13.07;5.53;;;3.40;99.90;;;;;;4400009;28;659198;-76
2024/01/02 03:17:11;;;;;;;18.17;5.87;;;3.40;99.90;;;;;;4433314;28;658530;-76
2024/01/02 03:19:59;;;;;;;14.10;6.20;;;3.40;99.90;;;;;;4406132;28;658901;-76
2024/01/02 03:22:46;;;;;;;14.20;5.30;;;3.40;99.90;;;;;;4432600;28;658882;-76
2024/01/02 03:25:33;;;;;;;15.43;5.35;;;3.40;99.90;;;;;;4411501;28;658549;-76
2024/01/02 03:28:21;;;;;;;22.93;6.30;;;3.50;99.90;;;;;;4423266;28;659227;-76
2024/01/02 03:31:09;;;;;;;12.77;5.53;;;3.40;99.90;;;;;;4406623;28;658626;-76
2024/01/02 03:33:56;;;;;;;17.63;5.53;;;3.40;99.90;;;;;;4418090;28;658231;-76
2024/01/02 03:36:43;;;;;;;10.50;5.30;;;3.40;99.90;;;;;;4406458;28;658590;-76
2024/01/02 03:39:31;;;;;;;12.90;4.93;;;3.40;99.90;;;;;;4430766;28;658865;-76
2024/01/02 03:42:18;;;;;;;17.77;5.70;;;3.40;99.90;;;;;;4413891;28;659270;-76
2024/01/02 03:45:06;;;;;;;2.70;1.30;;;3.40;99.90;;;;;;4426718;28;659033;-76
2024/01/02 03:47:54;;;;;;;19.67;6.13;;;3.50;99.90;;;;;;4403663;28;658016;-76
2024/01/02 03:50:42;;;;;;;16.37;5.70;;;3.40;99.90;;;;;;4430628;28;659144;-76
2024/01/02 03:53:29;;;;;;;14.80;5.93;;;3.40;99.90;;;;;;4400211;28;658928;-76
2024/01/02 03:56:16;;;;;;;14.37;5.33;;;3.40;99.90;;;;;;4427776;28;659184;-76
2024/01/02 03:59:03;;;;;;;10.10;4.97;;;3.50;99.90;;;;;;4408036;28;658282;-76
2024/01/02 04:01:51;;;;;;;20.37;6.30;;;3.50;99.90;;;;;;4428343;28;659277;-76
2024/01/02 04:04:40;;;;;;;21.17;5.30;;;3.50;99.90;;;;;;4399132;28;658605;-76
2024/01/02 04:07:27;;;;;;;13.20;5.80;;;3.50;99.90;;;;;;4418979;28;658960;-76
2024/01/02 04:10:15;;;;;;;12.97;4.97;;;3.50;99.90;;;;;;4423118;28;658742;-77
2024/01/02 04:13:03;;;;;;;16.53;2.57;;;3.50;99.90;;;;;;4417384;28;659162;-77
2024/01/02 04:15:50;;;;;;;14.60;5.37;;;3.60;99.90;;;;;;4423883;28;659927;-77
2024/01/02 04:18:37;;;;;;;18.03;4.10;;;3.60;99.90;;;;;;4429236;28;658684;-76
2024/01/02 04:21:26;;;;;;;14.10;5.33;;;3.60;99.90;;;;;;4424254;28;659238;-76
2024/01/02 04:24:14;;;;;;;1.37;1.07;;;3.60;99.90;;;;;;4408186;28;659144;-76
2024/01/02 04:27:01;;;;;;;11.60;3.50;;;3.60;99.90;;;;;;4431897;28;657781;-76
2024/01/02 04:29:49;;;;;;;23.27;4.57;;;3.60;99.90;;;;;;4398643;28;659024;-76
2024/01/02 04:32:36;;;;;;;11.17;4.27;;;3.60;99.90;;;;;;4428495;28;658431;-76
2024/01/02 04:35:23;;;;;;;19.43;4.50;;;3.60;99.90;;;;;;4400584;28;658442;-76
2024/01/02 04:38:12;;;;;;;9.20;2.80;;;3.60;99.90;;;;;;4424624;28;658561;-76
2024/01/02 04:40:59;;;;;;;13.10;3.50;;;3.60;99.90;;;;;;4409479;28;657870;-76
2024/01/02 04:43:46;;;;;;;7.67;1.93;;;3.60;99.90;;;;;;4431204;28;658989;-76
2024/01/02 04:46:34;;;;;;;10.33;3.73;;;3.70;99.90;;;;;;4407134;28;657196;-76
2024/01/02 04:49:22;;;;;;;9.80;3.57;;;3.70;99.90;;;;;;4419771;28;658735;-76
2024/01/02 04:52:09;;;;;;;6.70;2.20;;;3.70;99.90;;;;;;4406485;28;658054;-76
2024/01/02 04:54:58;;;;;;;12.07;3.83;;;3.70;99.90;;;;;;4421554;28;657469;-76
2024/01/02 04:57:46;;;;;;;8.63;2.90;;;3.70;99.90;;;;;;4401373;28;658981;-76
2024/01/02 05:00:33;;;;;;;9.30;3.77;;;3.70;99.90;;;;;;4394364;28;657477;-76
2024/01/02 05:03:20;;;;;;;17.93;4.43;;;3.60;99.90;;;;;;4419554;28;658996;-76
2024/01/02 05:06:08;;;;;;;7.43;1.30;;;3.70;99.90;;;;;;4412706;28;658657;-76
2024/01/02 05:08:56;;;;;;;13.40;3.80;;;3.70;99.90;;;;;;4414778;28;658341;-76
2024/01/02 05:11:45;;;;;;;7.47;2.10;;;3.70;99.90;;;;;;4390549;28;658125;-76
2024/01/02 05:14:32;;;;;;;10.93;3.83;;;3.60;99.90;;;;;;4406737;28;657957;-76
2024/01/02 05:17:20;;;;;;;9.53;3.00;;;3.60;99.90;;;;;;4413359;28;659589;-76
2024/01/02 05:20:08;;;;;;;11.50;2.93;;;3.70;99.90;;;;;;4417921;28;657758;-76
2024/01/02 05:22:55;;;;;;;13.53;3.20;;;3.60;99.90;;;;;;4396637;28;658873;-76
2024/01/02 05:25:43;;;;;;;12.37;4.17;;;3.70;99.90;;;;;;4399021;28;658330;-76
2024/01/02 05:28:32;;;;;;;2.00;1.47;;;3.60;99.90;;;;;;4411125;28;658934;-76
2024/01/02 05:31:19;;;;;;;15.50;4.93;;;3.60;99.90;;;;;;4401523;28;657701;-76
2024/01/02 05:34:06;;;;;;;15.93;4.80;;;3.60;99.90;;;;;;4419108;28;658539;-76
2024/01/02 05:36:53;;;;;;;19.27;5.23;;;3.60;99.90;;;;;;4394689;28;658388;-76
2024/01/02 05:39:40;;;;;;;16.07;4.73;;;3.50;99.90;;;;;;4425923;28;659472;-76
2024/01/02 05:42:28;;;;;;;14.17;3.77;;;3.50;99.90;;;;;;4409701;28;659851;-76
2024/01/02 05:45:16;;;;;;;16.33;4.73;;;3.50;99.90;;;;;;4418625;28;659458;-76
2024/01/02 05:48:04;;;;;;;4.37;1.83;;;3.40;99.90;;;;;;4402225;28;659018;-75
2024/01/02 05:50:51;;;;;;;13.63;4.00;;;3.30;99.90;;;;;;4436714;28;657459;-76
2024/01/02 05:53:38;;;;;;;10.13;3.73;;;3.30;99.90;;;;;;4406955;28;658870;-76
2024/01/02 05:56:26;;;;;;;19.80;4.60;;;3.20;99.90;;;;;;4435847;28;658572;-76
2024/01/02 05:59:13;;;;;;;10.93;4.40;;;3.20;99.90;;;;;;4401651;28;658684;-76
2024/01/02 06:02:01;;;;;;;13.07;4.47;;;3.10;99.90;;;;;;4424505;28;659133;-76
2024/01/02 06:04:49;;;;;;;15.97;4.50;;;3.10;99.90;;;;;;4398863;28;658780;-76
2024/01/02 06:07:36;;;;;;;10.20;3.87;;;3.00;99.90;;;;;;4416547;28;659309;-76
2024/01/02 06:10:23;;;;;;;15.67;4.30;;;2.90;99.90;;;;;;4392567;28;658899;-76
2024/01/02 06:13:10;;;;;;;12.93;4.50;;;2.80;99.90;;;;;;4417427;28;658810;-76
2024/01/02 06:15:57;;;;;;;17.40;5.07;;;2.70;99.90;;;;;;4402370;28;658562;-76
2024/01/02 06:18:46;;;;;;;15.70;4.27;;;2.60;99.90;;;;;;4432984;28;658264;-76
2024/01/02 06:21:33;;;;;;;18.10;5.23;;;2.60;99.90;;;;;;4402524;28;658812;-76
2024/01/02 06:24:20;;;;;;;22.57;5.13;;;2.60;99.90;;;;;;4428592;28;659313;-76
2024/01/02 06:27:08;;;;;;;14.23;4.90;;;2.40;99.90;;;;;;4398318;28;658888;-77
2024/01/02 06:29:55;;;;;;;21.03;5.17;;;2.40;99.90;;;;;;4424198;28;658616;-77
2024/01/02 06:32:42;;;;;;;13.70;4.03;;;2.30;99.90;;;;;;4403093;28;659062;-76
2024/01/02 06:35:31;;;;;;;20.00;6.07;;;2.30;99.90;;;;;;4413386;28;658845;-76
2024/01/02 06:38:18;;;;;;;11.13;3.77;;;2.30;99.90;;;;;;4395751;28;659074;-76
2024/01/02 06:41:06;;;;;;;13.52;4.30;;;2.50;99.90;;;;;;4422103;28;659520;-76
2024/01/02 06:43:53;;;;;;;22.87;6.60;;;2.50;99.90;;;;;;4403889;28;659154;-76
2024/01/02 06:46:40;;;;;;;15.10;3.93;;;2.50;99.90;;;;;;4424312;28;658794;-76
2024/01/02 06:49:27;;;;;;;22.80;4.90;;;2.40;99.90;;;;;;4400688;28;658871;-76
2024/01/02 06:52:16;;;;;;;18.40;5.80;;;2.50;99.90;;;;;;4422897;28;658822;-77
2024/01/02 06:55:04;;;;;;;16.00;5.80;;;2.40;99.90;;;;;;4402422;28;659061;-76
2024/01/02 06:57:51;;;;;;;19.90;5.37;;;2.40;99.90;;;;;;4423475;28;658479;-76
2024/01/02 07:00:38;;;;;;;13.10;5.23;;;2.40;99.90;;;;;;4402201;28;659550;-77
2024/01/02 07:03:25;;;;;;;18.53;5.70;;;2.40;99.90;;;;;;4429281;28;659209;-76
2024/01/02 07:06:13;;;;;;;11.80;5.70;;;2.40;99.90;;;;;;4396408;28;658560;-76
2024/01/02 07:09:01;;;;;;;16.60;5.50;;;2.30;99.90;;;;;;4424754;28;658855;-76
2024/01/02 07:11:49;;;;;;;16.63;5.90;;;2.30;99.90;;;;;;4398774;28;659273;-76
2024/01/02 07:14:37;;;;;;;12.50;4.67;;;2.20;99.90;;;;;;4425567;28;658864;-76
2024/01/02 07:17:24;;;;;;;19.17;5.10;;;2.30;99.90;;;;;;4398642;28;659298;-75
2024/01/02 07:20:13;;;;;;;19.13;5.67;;;2.30;99.90;;;;;;4426510;28;659032;-76
2024/01/02 07:23:00;;;;;;;17.10;5.53;;;2.40;99.90;;;;;;4397370;28;658751;-76
2024/01/02 07:25:49;;;;;;;10.73;4.80;;;2.30;99.90;;;;;;4406279;28;658460;-76
2024/01/02 07:28:36;;;;;;;13.23;5.10;;;2.40;99.90;;;;;;4431754;28;658575;-76
2024/01/02 07:31:23;;;;;;;13.20;5.33;;;2.40;99.90;;;;;;4408447;28;659220;-76
2024/01/02 07:34:13;;;;;;;15.60;5.30;;;2.40;99.90;;;;;;4423055;28;659649;-76
2024/01/02 07:37:00;;;;;;;10.00;4.07;;;2.30;99.90;;;;;;4400687;28;659255;-76
2024/01/02 07:39:50;;;;;;;13.80;5.10;;;2.40;99.90;;;;;;4410183;28;658626;-76
2024/01/02 07:42:39;;;;;;;14.53;3.97;;;2.40;99.90;;;;;;4409596;28;658892;-76
2024/01/02 07:45:27;;;;;;;14.63;5.00;;;2.50;99.90;;;;;;4417568;28;658999;-76
2024/01/02 07:48:14;;;;;;;15.20;5.30;;;2.50;99.90;;;;;;4394363;28;659032;-76
2024/01/02 07:51:01;;;;;;;19.43;5.30;;;2.60;99.90;;;;;;4423159;28;659723;-76
2024/01/02 07:53:48;;;;;;;14.70;4.53;;;2.60;99.90;;;;;;4409978;28;658400;-76
2024/01/02 07:56:35;;;;;;;17.73;5.23;;;2.60;99.90;;;;;;4430499;28;658453;-76
2024/01/02 07:59:25;;;;;;;15.60;4.85;;;2.60;99.90;;;;;;4402423;28;658774;-76
2024/01/02 08:02:12;;;;;;;18.00;5.10;;;2.70;99.90;;;;;;4415415;28;658823;-76
2024/01/02 08:05:00;;;;;;;12.17;4.77;;;2.70;99.90;;;;;;4428802;28;658868;-76
2024/01/02 08:07:47;;;;;;;15.30;4.90;;;2.90;99.90;;;;;;4425685;28;659082;-76
2024/01/02 08:10:34;;;;;;;7.27;2.93;;;2.90;99.90;;;;;;4406501;28;659057;-76
2024/01/02 08:13:21;;;;;;;16.13;4.60;;;2.90;99.90;;;;;;4431950;28;657439;-76
2024/01/02 08:16:10;;;;;;;26.23;4.33;;;2.90;99.90;;;;;;4406828;28;659151;-76
2024/01/02 08:18:57;;;;;;;17.30;5.27;;;2.90;99.90;;;;;;4416915;28;659476;-76
2024/01/02 08:21:45;;;;;;;18.90;4.73;;;2.90;99.90;;;;;;4441770;28;658645;-75
2024/01/02 08:24:32;;;;;;;11.00;3.47;;;3.00;99.90;;;;;;4439992;28;658396;-75
2024/01/02 08:27:19;;;;;;;14.60;4.93;;;3.10;99.90;;;;;;4399321;28;659208;-75
2024/01/02 08:30:08;;;;;;;13.40;4.30;;;3.10;99.90;;;;;;4410887;28;658576;-75
2024/01/02 08:32:56;;;;;;;18.60;5.57;;;3.40;99.90;;;;;;4401729;28;658846;-75
2024/01/02 08:35:43;;;;;;;24.03;6.03;;;3.50;99.90;;;;;;4407596;28;659058;-76
2024/01/02 08:38:30;;;;;;;6.83;3.90;;;3.80;99.90;;;;;;4413313;28;659110;-75
2024/01/02 08:41:18;;;;;;;11.77;4.03;;;3.80;99.90;;;;;;4399089;28;657921;-75
2024/01/02 08:44:05;;;;;;;22.83;7.30;;;3.90;99.90;;;;;;4406559;28;659355;-75
2024/01/02 08:46:52;;;;;;;19.37;8.07;;;3.80;99.90;;;;;;4410352;28;658442;-75
2024/01/02 08:49:41;;;;;;;20.77;7.97;;;3.70;99.90;;;;;;4403275;28;658867;-75
2024/01/02 08:52:28;;;;;;;20.23;7.38;;;3.90;99.90;;;;;;4392877;28;659413;-75
2024/01/02 08:55:16;;;;;;;24.50;8.97;;;4.00;99.90;;;;;;4418349;28;658606;-75
2024/01/02 08:58:04;;;;;;;20.53;6.67;;;4.00;99.90;;;;;;4397778;28;658743;-76
2024/01/02 09:00:51;;;;;;;18.67;7.80;;;3.80;99.90;;;;;;4413820;28;657896;-76
2024/01/02 09:03:38;;;;;;;27.23;9.03;;;3.90;99.90;;;;;;4395942;28;658223;-76
2024/01/02 09:06:27;;;;;;;25.02;9.10;;;4.10;99.90;;;;;;4411121;28;658685;-75
2024/01/02 09:09:15;;;;;;;20.80;8.10;;;4.20;99.90;;;;;;4399353;28;660710;-75
2024/01/02 09:12:03;;;;;;;28.10;9.93;;;4.30;99.90;;;;;;4402399;28;658435;-76
2024/01/02 09:14:50;;;;;;;28.67;9.83;;;4.70;99.90;;;;;;4423985;28;658864;-75
2024/01/02 09:17:37;;;;;;;24.27;9.40;;;4.90;99.90;;;;;;4418537;28;658750;-76
2024/01/02 09:20:24;;;;;;;25.10;8.83;;;4.60;99.90;;;;;;4420651;28;659313;-76
2024/01/02 09:23:13;;;;;;;25.87;8.90;;;4.90;99.90;;;;;;4422062;28;658130;-76
2024/01/02 09:26:00;;;;;;;20.67;7.23;;;4.70;99.90;;;;;;4408492;28;659296;-75
2024/01/02 09:28:48;;;;;;;21.90;9.47;;;4.70;99.90;;;;;;4400860;28;658547;-75
2024/01/02 09:31:35;;;;;;;12.50;3.27;;;4.60;99.90;;;;;;4427145;28;659626;-75
2024/01/02 09:34:22;;;;;;;11.27;3.87;;;4.70;99.90;;;;;;4416628;28;658835;-75
2024/01/02 09:37:10;;;;;;;21.93;8.20;;;4.80;99.90;;;;;;4432535;28;658735;-75
2024/01/02 09:39:58;;;;;;;23.37;6.60;;;4.90;99.90;;;;;;4433989;28;658855;-75
2024/01/02 09:42:51;;;;;;;19.53;6.50;;;5.00;99.90;;;;;;4413750;28;658830;-75
2024/01/02 09:45:44;;;;;;;22.90;6.27;;;5.40;99.90;;;;;;4415631;28;659529;-76
2024/01/02 09:48:42;;;;;;;16.83;5.80;;;5.60;99.90;;;;;;4404743;28;660517;-75
2024/01/02 09:51:44;;;;;;;16.37;5.17;;;5.90;99.90;;;;;;4407463;28;658180;-75
2024/01/02 09:54:41;;;;;;;16.13;5.47;;;5.90;99.90;;;;;;4401961;28;658848;-75
2024/01/02 09:57:34;;;;;;;16.57;3.63;;;5.90;99.90;;;;;;4382832;28;658679;-75
2024/01/02 10:00:25;;;;;;;16.60;5.37;;;6.00;99.90;;;;;;4406531;28;658242;-75
2024/01/02 10:03:34;;;;;;;11.43;3.60;;;6.00;99.90;;;;;;4389180;28;659410;-76
2024/01/02 10:06:32;;;;;;;17.27;5.40;;;6.40;99.90;;;;;;4390172;28;658399;-75
2024/01/02 10:09:29;;;;;;;17.73;5.23;;;6.20;99.90;;;;;;4403248;28;659568;-75
2024/01/02 10:12:23;;;;;;;9.57;3.60;;;6.40;99.90;;;;;;4420334;28;659045;-75
2024/01/02 10:15:14;;;;;;;13.37;4.67;;;6.30;99.90;;;;;;4409018;28;657605;-75
2024/01/02 10:18:05;;;;;;;12.13;3.83;;;6.00;99.90;;;;;;4385934;28;658746;-75
2024/01/02 10:20:57;;;;;;;12.37;3.17;;;5.90;99.90;;;;;;4395837;28;658336;-75
2024/01/02 10:23:49;;;;;;;21.40;4.27;;;5.80;99.90;;;;;;4372261;28;659116;-75
2024/01/02 10:26:39;;;;;;;16.63;4.57;;;5.80;99.90;;;;;;4400337;28;658677;-75
2024/01/02 10:29:36;;;;;;;13.10;4.30;;;6.00;99.90;;;;;;4395201;28;661289;-75
2024/01/02 10:32:28;;;;;;;13.77;3.63;;;5.90;99.90;;;;;;4407498;28;658184;-75
2024/01/02 10:35:19;;;;;;;9.87;2.10;;;6.00;99.90;;;;;;4409955;28;659240;-75
2024/01/02 10:38:09;;;;;;;15.77;3.60;;;6.10;99.90;;;;;;4396937;28;657476;-75
2024/01/02 10:41:00;;;;;;;13.00;3.50;;;5.80;99.90;;;;;;4402554;28;658764;-75
2024/01/02 10:43:54;;;;;;;12.20;3.53;;;5.80;99.90;;;;;;4388722;28;659117;-75
2024/01/02 10:46:46;;;;;;;5.50;1.37;;;5.70;99.90;;;;;;4404560;28;659183;-75
2024/01/02 10:49:40;;;;;;;12.07;2.90;;;5.80;99.90;;;;;;4417765;28;657386;-75
2024/01/02 10:52:32;;;;;;;10.77;2.43;;;5.80;99.90;;;;;;4397041;28;658883;-75
2024/01/02 10:55:20;;;;;;;14.10;3.50;;;5.80;99.90;;;;;;4398068;28;659128;-76
2024/01/02 10:58:11;;;;;;;8.83;2.23;;;5.80;99.90;;;;;;4424401;28;659088;-75
2024/01/02 11:01:02;;;;;;;11.23;3.43;;;5.60;99.90;;;;;;4414759;28;657525;-75
2024/01/02 11:03:54;;;;;;;11.40;2.90;;;5.70;99.90;;;;;;4397279;28;659413;-75
2024/01/02 11:06:45;;;;;;;16.90;3.30;;;5.90;99.90;;;;;;4409875;28;658283;-75
2024/01/02 11:09:37;;;;;;;10.63;2.80;;;6.20;99.90;;;;;;4431706;28;658823;-75
2024/01/02 11:12:24;;;;;;;15.07;4.07;;;6.40;99.90;;;;;;4408627;28;659202;-75
2024/01/02 11:15:11;;;;;;;13.57;4.40;;;6.50;99.90;;;;;;4433442;28;658507;-75
2024/01/02 11:17:59;;;;;;;15.67;3.17;;;6.90;99.90;;;;;;4402689;28;659282;-75
2024/01/02 11:20:50;;;;;;;16.70;3.97;;;6.80;99.90;;;;;;4418321;28;658316;-75
2024/01/02 11:23:41;;;;;;;9.93;3.17;;;6.70;99.90;;;;;;4399993;28;659174;-75
2024/01/02 11:26:29;;;;;;;11.80;2.83;;;6.70;99.90;;;;;;4411187;28;657539;-76
2024/01/02 11:29:17;;;;;;;9.80;3.67;;;6.40;99.90;;;;;;4422087;28;658012;-75
2024/01/02 11:32:07;;;;;;;15.23;3.67;;;6.40;99.90;;;;;;4403507;28;657911;-75
2024/01/02 11:35:00;;;;;;;7.40;3.27;;;6.50;99.90;;;;;;4388193;28;659984;-75
2024/01/02 11:37:50;;;;;;;11.50;3.77;;;6.50;99.90;;;;;;4401209;28;657716;-75
2024/01/02 11:40:46;;;;;;;14.10;3.80;;;6.60;99.90;;;;;;4379738;28;659405;-75
2024/01/02 11:43:37;;;;;;;15.13;4.90;;;6.70;99.90;;;;;;4400053;28;659363;-75
2024/01/02 11:46:25;;;;;;;16.33;4.50;;;6.70;99.90;;;;;;4403737;28;660204;-75
2024/01/02 11:49:19;;;;;;;9.17;2.67;;;6.70;99.90;;;;;;4409695;28;659005;-75
2024/01/02 11:52:09;;;;;;;15.67;4.30;;;6.70;99.90;;;;;;4403422;28;657995;-75
2024/01/02 11:55:00;;;;;;;18.20;4.67;;;6.50;99.90;;;;;;4407390;28;658750;-75
2024/01/02 11:57:51;;;;;;;15.77;5.63;;;6.60;99.90;;;;;;4382720;28;658880;-76
2024/01/02 12:00:42;;;;;;;21.10;5.63;;;6.70;99.90;;;;;;4407232;28;659291;-75
2024/01/02 12:03:37;;;;;;;16.97;5.33;;;6.70;99.90;;;;;;4407289;28;660140;-75
2024/01/02 12:06:26;;;;;;;19.03;5.57;;;6.60;99.90;;;;;;4405748;28;661585;-75
2024/01/02 12:09:16;;;;;;;20.08;5.93;;;6.60;99.90;;;;;;4411644;28;658377;-75
2024/01/02 12:12:08;;;;;;;15.33;5.30;;;6.50;99.90;;;;;;4411372;28;658731;-75
2024/01/02 12:15:03;;;;;;;17.43;4.93;;;6.50;99.90;;;;;;4406859;28;658810;-75
2024/01/02 12:17:54;;;;;;;19.10;5.70;;;6.50;99.90;;;;;;4414725;28;659320;-75
2024/01/02 12:20:42;;;;;;;21.87;6.27;;;6.40;99.90;;;;;;4413400;28;658858;-75
2024/01/02 12:23:31;;;;;;;20.53;6.20;;;6.30;99.90;;;;;;4392299;28;659328;-75
2024/01/02 12:26:22;;;;;;;17.37;5.93;;;6.20;99.90;;;;;;4406923;28;658981;-75
2024/01/02 12:29:10;;;;;;;18.70;5.93;;;6.20;99.90;;;;;;4400509;28;658382;-75
2024/01/02 12:32:00;;;;;;;22.53;7.33;;;6.20;99.90;;;;;;4424738;28;658315;-75
2024/01/02 12:34:50;;;;;;;26.37;7.40;;;6.30;99.90;;;;;;4384118;28;659431;-76
2024/01/02 12:37:40;;;;;;;18.73;7.43;;;6.30;99.90;;;;;;4404823;28;658772;-76
2024/01/02 12:40:29;;;;;;;25.83;7.10;;;6.20;99.90;;;;;;4409746;28;658471;-75
2024/01/02 12:43:19;;;;;;;22.87;7.63;;;6.20;99.90;;;;;;4427477;28;659966;-75
2024/01/02 12:46:14;;;;;;;21.23;7.97;;;6.10;99.90;;;;;;4417292;28;659329;-76
2024/01/02 12:49:07;;;;;;;17.93;7.40;;;6.10;99.90;;;;;;4403118;28;658742;-76
2024/01/02 12:51:58;;;;;;;12.00;3.63;;;6.00;99.90;;;;;;4403974;28;660105;-75
2024/01/02 12:54:47;;;;;;;9.90;3.63;;;6.00;99.90;;;;;;4409321;28;659428;-75
2024/01/02 12:57:37;;;;;;;9.47;3.30;;;6.00;99.90;;;;;;4401247;28;658815;-75
2024/01/02 13:00:24;;;;;;;14.30;3.50;;;5.90;99.90;;;;;;4414350;28;658119;-75
2024/01/02 13:03:14;;;;;;;11.90;3.30;;;5.90;99.90;;;;;;4430737;28;658847;-75
2024/01/02 13:06:03;;;;;;;5.60;2.60;;;5.80;99.90;;;;;;4414221;28;659029;-75
2024/01/02 13:08:50;;;;;;;11.33;2.90;;;5.80;99.90;;;;;;4402209;28;658210;-75
2024/01/02 13:11:38;;;;;;;11.60;3.60;;;5.80;99.90;;;;;;4419779;28;659137;-75
2024/01/02 13:14:25;;;;;;;4.35;2.00;;;5.80;99.90;;;;;;4432968;28;659871;-75
2024/01/02 13:17:13;;;;;;;13.73;3.27;;;5.70;99.90;;;;;;4404675;28;657712;-75
2024/01/02 13:20:00;;;;;;;16.10;3.87;;;5.80;99.90;;;;;;4411203;28;659397;-75
2024/01/02 13:22:49;;;;;;;16.35;3.80;;;5.90;99.90;;;;;;4390813;28;658457;-76
2024/01/02 13:25:40;;;;;;;7.00;3.07;;;5.80;99.90;;;;;;4405581;28;658893;-75
2024/01/02 13:28:28;;;;;;;7.40;1.97;;;5.80;99.90;;;;;;4383338;28;658029;-75
2024/01/02 13:31:31;;;;;;;10.77;3.13;;;5.90;99.90;;;;;;4403912;28;658595;-75
2024/01/02 13:34:24;;;;;;;14.73;4.43;;;5.90;99.90;;;;;;4358143;28;659048;-75
2024/01/02 13:37:22;;;;;;;16.93;4.97;;;5.90;99.90;;;;;;4387132;28;659254;-75
2024/01/02 13:40:21;;;;;;;11.90;4.13;;;5.90;99.90;;;;;;4392075;28;659104;-76
2024/01/02 13:43:11;;;;;;;9.73;4.17;;;5.80;99.90;;;;;;4382175;28;659021;-75
2024/01/02 13:46:09;;;;;;;13.40;4.37;;;5.70;99.90;;;;;;4390563;28;658233;-75
2024/01/02 13:48:58;;;;;;;12.53;4.20;;;5.80;99.90;;;;;;4393929;28;659317;-75
2024/01/02 13:51:46;;;;;;;13.52;4.38;;;5.80;99.90;;;;;;4385849;28;659364;-75
2024/01/02 13:54:41;;;;;;;13.87;4.20;;;5.80;99.90;;;;;;4381850;28;658661;-75
2024/01/02 13:57:30;;;;;;;17.90;4.83;;;5.70;99.90;;;;;;4366017;28;659443;-76
2024/01/02 14:00:18;;;;;;;15.60;5.20;;;5.70;99.90;;;;;;4396518;28;658368;-75
2024/01/02 14:03:06;;;;;;;16.17;5.17;;;5.70;99.90;;;;;;4414076;28;658758;-75
2024/01/02 14:05:56;;;;;;;15.13;4.60;;;5.60;99.90;;;;;;4395563;28;659055;-76
2024/01/02 14:08:43;;;;;;;13.77;5.20;;;5.40;99.90;;;;;;4389282;28;658497;-76
2024/01/02 14:11:30;;;;;;;10.73;3.87;;;5.40;99.90;;;;;;4410600;28;659782;-75
2024/01/02 14:14:21;;;;;;;7.30;3.37;;;5.60;99.90;;;;;;4389166;28;659020;-75
2024/01/02 14:17:11;;;;;;;9.17;3.67;;;5.70;99.90;;;;;;4397617;28;657315;-75
2024/01/02 14:20:01;;;;;;;10.37;3.40;;;5.70;99.90;;;;;;4412912;28;657623;-75
2024/01/02 14:22:54;;;;;;;8.43;2.53;;;5.60;99.90;;;;;;4403806;28;659429;-75
2024/01/02 14:25:50;;;;;;;11.40;3.87;;;5.60;99.90;;;;;;4408406;28;657703;-75
2024/01/02 14:28:42;;;;;;;13.90;3.83;;;5.60;99.90;;;;;;4382222;28;659174;-75